Time;durP1;ratioP1;P1;durP2;ratioP2;P2;SDS_P1;SDS_P2;PMS_P1;PMS_P2;Temp;Humidity;BMP_temperature;BMP_pressure;BME280_temperature;BME280_humidity;BME280_pressure;Samples;Min_cycle;Max_cycle;Signal;HPM_P1;HPM_P2
2023/09/24 00:01:06;;;;;;;;;;;24.30;58.90;;;;;;5051845;28;19925;-63
2023/09/24 00:03:33;;;;;;;;;;;24.20;58.80;;;;;;5052967;28;19929;-63
2023/09/24 00:06:06;;;;;;;;;;;24.30;58.90;;;;;;5052694;28;19931;-63
2023/09/24 00:08:33;;;;;;;;;;;24.20;58.80;;;;;;5052053;28;19933;-63
2023/09/24 00:11:02;;;;;;;;;;;24.30;58.80;;;;;;5051996;28;20070;-63
2023/09/24 00:13:30;;;;;;;;;;;24.20;58.80;;;;;;5052901;28;19974;-63
2023/09/24 00:16:04;;;;;;;;;;;24.30;58.90;;;;;;5052761;28;19925;-63
2023/09/24 00:18:35;;;;;;;;;;;24.30;58.80;;;;;;5052898;28;19929;-63
2023/09/24 00:21:03;;;;;;;;;;;24.20;58.80;;;;;;5052351;28;19924;-63
2023/09/24 00:23:30;;;;;;;;;;;24.30;58.80;;;;;;5052609;28;19974;-63
2023/09/24 00:25:57;;;;;;;;;;;24.20;58.80;;;;;;5052595;28;19925;-63
2023/09/24 00:28:25;;;;;;;;;;;24.30;58.80;;;;;;5052389;28;19931;-63
2023/09/24 00:30:52;;;;;;;;;;;24.20;58.80;;;;;;5052102;28;19935;-63
2023/09/24 00:33:21;;;;;;;;;;;24.20;58.70;;;;;;5054630;28;20395;-63
2023/09/24 00:35:48;;;;;;;;;;;24.20;58.70;;;;;;5056699;28;19924;-63
2023/09/24 00:38:16;;;;;;;;;;;24.20;58.70;;;;;;5056089;28;20015;-64
2023/09/24 00:40:44;;;;;;;;;;;24.20;58.70;;;;;;5055364;28;20043;-63
2023/09/24 00:43:26;;;;;;;;;;;24.20;58.70;;;;;;5056173;28;19928;-63
2023/09/24 00:45:53;;;;;;;;;;;24.20;58.60;;;;;;5056388;28;19932;-63
2023/09/24 00:48:22;;;;;;;;;;;24.20;58.60;;;;;;5056080;28;19978;-63
2023/09/24 00:50:49;;;;;;;;;;;24.30;58.60;;;;;;5055987;28;19936;-63
2023/09/24 00:53:16;;;;;;;;;;;24.20;58.50;;;;;;5055825;28;19931;-63
2023/09/24 00:55:44;;;;;;;;;;;24.30;58.50;;;;;;5055926;28;20404;-63
2023/09/24 00:58:11;;;;;;;;;;;24.30;58.50;;;;;;5056052;28;19924;-62
2023/09/24 01:00:38;;;;;;;;;;;24.30;58.40;;;;;;5054094;28;19929;-63
2023/09/24 01:03:06;;;;;;;;;;;24.30;58.40;;;;;;5054771;28;19925;-63
2023/09/24 01:05:34;;;;;;;;;;;24.30;58.40;;;;;;5055960;28;19964;-63
2023/09/24 01:08:01;;;;;;;;;;;24.30;58.40;;;;;;5055543;28;19928;-63
2023/09/24 01:10:28;;;;;;;;;;;24.30;58.40;;;;;;5055177;28;19924;-63
2023/09/24 01:12:59;;;;;;;;;;;24.30;58.40;;;;;;5071081;28;19948;-63
2023/09/24 01:15:27;;;;;;;;;;;24.30;58.40;;;;;;5055333;28;20015;-63
2023/09/24 01:17:54;;;;;;;;;;;24.30;58.40;;;;;;5053852;28;19925;-63
2023/09/24 01:20:22;;;;;;;;;;;24.30;58.40;;;;;;5055128;28;19929;-63
2023/09/24 01:22:50;;;;;;;;;;;24.30;58.40;;;;;;5055369;28;20015;-63
2023/09/24 01:25:20;;;;;;;;;;;24.20;58.30;;;;;;5054337;28;19924;-63
2023/09/24 01:27:48;;;;;;;;;;;24.30;58.40;;;;;;5054296;28;19924;-63
2023/09/24 01:30:15;;;;;;;;;;;24.30;58.40;;;;;;5055585;28;19932;-63
2023/09/24 01:32:42;;;;;;;;;;;24.20;58.40;;;;;;5053273;28;19936;-63
2023/09/24 01:35:11;;;;;;;;;;;24.20;58.40;;;;;;5049079;28;19925;-63
2023/09/24 01:37:38;;;;;;;;;;;24.20;58.40;;;;;;5054663;28;19971;-63
2023/09/24 01:40:18;;;;;;;;;;;24.20;58.30;;;;;;5054658;28;20395;-63
2023/09/24 01:42:48;;;;;;;;;;;24.20;58.40;;;;;;5055087;28;20042;-63
2023/09/24 01:45:16;;;;;;;;;;;24.20;58.40;;;;;;5054412;28;19971;-63
2023/09/24 01:47:49;;;;;;;;;;;24.20;58.30;;;;;;5054779;28;20384;-63
2023/09/24 01:50:17;;;;;;;;;;;24.20;58.30;;;;;;5054440;28;20270;-63
2023/09/24 01:52:45;;;;;;;;;;;24.20;58.40;;;;;;5053839;28;19943;-63
2023/09/24 01:55:15;;;;;;;;;;;24.20;58.40;;;;;;5054793;28;19929;-63
2023/09/24 01:57:43;;;;;;;;;;;24.20;58.30;;;;;;5054549;28;19929;-63
2023/09/24 02:00:23;;;;;;;;;;;24.20;58.90;;;;;;5055166;28;19950;-62
2023/09/24 02:02:51;;;;;;;;;;;24.20;58.30;;;;;;5054946;28;19933;-63
2023/09/24 02:05:19;;;;;;;;;;;24.20;58.30;;;;;;5054207;28;19979;-62
2023/09/24 02:07:49;;;;;;;;;;;24.20;58.30;;;;;;5054025;28;19925;-63
2023/09/24 02:10:19;;;;;;;;;;;24.20;58.20;;;;;;5053836;28;19925;-63
2023/09/24 02:12:47;;;;;;;;;;;24.20;58.20;;;;;;5053804;28;19935;-63
2023/09/24 02:15:18;;;;;;;;;;;24.20;58.10;;;;;;5053998;28;19929;-63
2023/09/24 02:17:47;;;;;;;;;;;24.30;58.10;;;;;;5054259;28;19925;-63
2023/09/24 02:20:32;;;;;;;;;;;24.30;58.00;;;;;;5053963;28;19928;-62
2023/09/24 02:23:01;;;;;;;;;;;24.30;58.00;;;;;;5053973;28;19976;-63
2023/09/24 02:25:35;;;;;;;;;;;24.30;58.00;;;;;;5053981;28;20423;-63
2023/09/24 02:28:03;;;;;;;;;;;24.30;57.90;;;;;;5054089;28;20126;-63
2023/09/24 02:30:31;;;;;;;;;;;24.30;57.90;;;;;;5053677;28;19929;-62
2023/09/24 02:32:59;;;;;;;;;;;24.30;57.90;;;;;;5054242;28;20011;-63
2023/09/24 02:35:27;;;;;;;;;;;24.30;57.90;;;;;;5053930;28;19970;-63
2023/09/24 02:37:55;;;;;;;;;;;24.20;57.80;;;;;;5053891;28;20373;-63
2023/09/24 02:40:26;;;;;;;;;;;24.20;57.90;;;;;;5052871;28;20354;-63
2023/09/24 02:42:54;;;;;;;;;;;24.20;57.80;;;;;;5053922;28;19929;-63
2023/09/24 02:45:21;;;;;;;;;;;24.20;57.90;;;;;;5052565;28;19924;-63
2023/09/24 02:47:49;;;;;;;;;;;24.20;57.90;;;;;;5053829;28;19925;-63
2023/09/24 02:50:17;;;;;;;;;;;24.20;57.90;;;;;;5053469;28;20019;-63
2023/09/24 02:52:45;;;;;;;;;;;24.20;57.90;;;;;;5053877;28;19928;-63
2023/09/24 02:55:16;;;;;;;;;;;24.20;57.90;;;;;;5053402;28;19929;-62
2023/09/24 02:57:44;;;;;;;;;;;24.20;57.90;;;;;;5053290;28;19936;-63
2023/09/24 03:00:19;;;;;;;;;;;24.20;57.90;;;;;;5053683;28;19933;-63
2023/09/24 03:02:47;;;;;;;;;;;24.20;57.90;;;;;;5053631;28;19983;-63
2023/09/24 03:05:20;;;;;;;;;;;24.20;57.90;;;;;;5053349;28;19931;-63
2023/09/24 03:07:49;;;;;;;;;;;24.20;57.80;;;;;;5053513;28;19932;-63
2023/09/24 03:10:18;;;;;;;;;;;24.20;57.80;;;;;;5053441;28;19931;-63
2023/09/24 03:12:46;;;;;;;;;;;24.20;57.90;;;;;;5053420;28;19935;-63
2023/09/24 03:15:13;;;;;;;;;;;24.20;57.80;;;;;;5053657;28;19928;-63
2023/09/24 03:17:41;;;;;;;;;;;24.20;57.90;;;;;;5053633;28;19929;-64
2023/09/24 03:20:16;;;;;;;;;;;24.20;57.90;;;;;;5053434;28;19925;-63
2023/09/24 03:22:48;;;;;;;;;;;24.20;57.90;;;;;;5052078;28;20384;-63
2023/09/24 03:25:16;;;;;;;;;;;24.20;57.90;;;;;;5053331;28;19925;-63
2023/09/24 03:27:44;;;;;;;;;;;24.20;57.90;;;;;;5053242;28;19928;-63
2023/09/24 03:30:13;;;;;;;;;;;24.20;57.80;;;;;;5053025;28;19931;-62
2023/09/24 03:32:41;;;;;;;;;;;24.20;57.80;;;;;;5053547;28;20293;-63
2023/09/24 03:35:10;;;;;;;;;;;24.20;57.70;;;;;;5053329;28;20024;-63
2023/09/24 03:37:37;;;;;;;;;;;24.20;57.70;;;;;;5052971;28;19931;-62
2023/09/24 03:40:05;;;;;;;;;;;24.20;57.60;;;;;;5052945;28;20369;-62
2023/09/24 03:42:33;;;;;;;;;;;24.20;57.60;;;;;;5053255;28;19925;-62
2023/09/24 03:45:01;;;;;;;;;;;24.20;57.60;;;;;;5052668;28;19925;-62
2023/09/24 03:47:28;;;;;;;;;;;24.20;57.50;;;;;;5052976;28;20385;-62
2023/09/24 03:49:55;;;;;;;;;;;24.20;57.50;;;;;;5053103;28;19947;-63
2023/09/24 03:52:22;;;;;;;;;;;24.20;57.50;;;;;;5053606;28;19935;-62
2023/09/24 03:54:49;;;;;;;;;;;24.20;57.50;;;;;;5053160;28;20276;-63
2023/09/24 03:57:16;;;;;;;;;;;24.20;57.50;;;;;;5053392;28;19925;-62
2023/09/24 03:59:43;;;;;;;;;;;24.20;57.60;;;;;;5049429;28;19926;-62
2023/09/24 04:02:11;;;;;;;;;;;24.20;57.60;;;;;;5042000;28;19976;-62
2023/09/24 04:04:38;;;;;;;;;;;24.20;57.60;;;;;;5040444;28;20035;-63
2023/09/24 04:07:06;;;;;;;;;;;24.20;57.60;;;;;;5031665;28;19925;-63
2023/09/24 04:09:33;;;;;;;;;;;24.20;57.60;;;;;;5037086;28;20437;-62
2023/09/24 04:12:00;;;;;;;;;;;24.20;57.60;;;;;;5036787;28;19925;-62
2023/09/24 04:14:27;;;;;;;;;;;24.20;57.60;;;;;;5036976;28;19932;-62
2023/09/24 04:16:56;;;;;;;;;;;24.20;57.60;;;;;;5036690;28;19971;-63
2023/09/24 04:19:26;;;;;;;;;;;24.10;57.60;;;;;;5036587;28;19929;-63
2023/09/24 04:21:53;;;;;;;;;;;24.10;57.60;;;;;;5036697;28;19925;-63
2023/09/24 04:24:20;;;;;;;;;;;24.10;57.60;;;;;;5036893;28;19929;-63
2023/09/24 04:26:47;;;;;;;;;;;24.10;57.60;;;;;;5047577;28;19928;-63
2023/09/24 04:29:18;;;;;;;;;;;24.10;57.60;;;;;;5056565;28;19979;-63
2023/09/24 04:31:45;;;;;;;;;;;24.10;57.60;;;;;;5056453;28;20373;-63
2023/09/24 04:34:13;;;;;;;;;;;24.10;57.60;;;;;;5056354;28;19924;-63
2023/09/24 04:36:40;;;;;;;;;;;24.10;57.50;;;;;;5054955;28;19928;-63
2023/09/24 04:39:11;;;;;;;;;;;24.10;57.60;;;;;;5056476;28;20286;-63
2023/09/24 04:41:40;;;;;;;;;;;24.00;57.50;;;;;;5055940;28;19925;-63
2023/09/24 04:44:07;;;;;;;;;;;23.90;57.60;;;;;;5055040;28;19978;-63
2023/09/24 04:46:35;;;;;;;;;;;23.70;57.80;;;;;;5056092;28;19929;-63
2023/09/24 04:49:05;;;;;;;;;;;23.50;57.60;;;;;;5056261;28;19978;-63
2023/09/24 04:51:34;;;;;;;;;;;23.30;56.20;;;;;;5055160;28;19928;-62
2023/09/24 04:54:03;;;;;;;;;;;23.00;55.10;;;;;;5056038;28;20438;-63
2023/09/24 04:56:30;;;;;;;;;;;22.70;53.60;;;;;;5056077;28;20019;-62
2023/09/24 04:58:57;;;;;;;;;;;22.40;52.60;;;;;;5056276;28;20285;-63
2023/09/24 05:01:24;;;;;;;;;;;22.20;51.60;;;;;;5055121;28;20446;-62
2023/09/24 05:03:51;;;;;;;;;;;21.90;51.30;;;;;;5056246;28;19925;-62
2023/09/24 05:06:19;;;;;;;;;;;21.60;51.60;;;;;;5055923;28;19925;-62
2023/09/24 05:08:47;;;;;;;;;;;21.30;52.80;;;;;;5038123;28;19935;-62
2023/09/24 05:11:14;;;;;;;;;;;21.00;51.50;;;;;;5055324;28;19935;-62
2023/09/24 05:13:41;;;;;;;;;;;20.80;53.70;;;;;;5055855;28;19983;-62
2023/09/24 05:16:08;;;;;;;;;;;20.60;53.80;;;;;;5055594;28;19931;-62
2023/09/24 05:18:35;;;;;;;;;;;20.30;55.40;;;;;;5054839;28;19970;-62
2023/09/24 05:21:03;;;;;;;;;;;20.10;52.00;;;;;;5054505;28;19925;-63
2023/09/24 05:23:30;;;;;;;;;;;20.00;53.50;;;;;;5055464;28;20373;-63
2023/09/24 05:25:57;;;;;;;;;;;19.80;54.60;;;;;;5055415;28;20358;-62
2023/09/24 05:28:24;;;;;;;;;;;19.70;53.30;;;;;;5055669;28;20266;-62
2023/09/24 05:30:52;;;;;;;;;;;19.60;53.30;;;;;;5054927;28;20378;-62
2023/09/24 05:33:20;;;;;;;;;;;19.40;53.80;;;;;;5055322;28;19929;-63
2023/09/24 05:35:51;;;;;;;;;;;19.20;54.70;;;;;;5055665;28;19925;-62
2023/09/24 05:38:19;;;;;;;;;;;19.10;53.00;;;;;;5055044;28;19925;-63
2023/09/24 05:40:47;;;;;;;;;;;19.10;54.10;;;;;;5055212;28;20404;-62
2023/09/24 05:43:14;;;;;;;;;;;19.00;56.30;;;;;;5054497;28;19924;-63
2023/09/24 05:45:48;;;;;;;;;;;18.90;54.70;;;;;;5054959;28;20278;-63
2023/09/24 05:48:15;;;;;;;;;;;18.80;54.70;;;;;;5055215;28;19929;-63
2023/09/24 05:50:43;;;;;;;;;;;18.80;54.60;;;;;;5053925;28;19925;-62
2023/09/24 05:53:11;;;;;;;;;;;18.70;54.30;;;;;;5055059;28;19925;-63
2023/09/24 05:55:38;;;;;;;;;;;18.60;53.60;;;;;;5054803;28;19972;-63
2023/09/24 05:58:08;;;;;;;;;;;18.60;55.50;;;;;;5054722;28;20388;-62
2023/09/24 06:00:35;;;;;;;;;;;18.50;55.00;;;;;;5054435;28;19925;-63
2023/09/24 06:03:03;;;;;;;;;;;18.50;53.80;;;;;;5053601;28;19933;-63
2023/09/24 06:05:30;;;;;;;;;;;18.50;54.50;;;;;;5054903;28;19929;-63
2023/09/24 06:07:57;;;;;;;;;;;18.40;55.00;;;;;;5054595;28;19931;-63
2023/09/24 06:10:24;;;;;;;;;;;18.30;54.50;;;;;;5055129;28;19928;-63
2023/09/24 06:12:52;;;;;;;;;;;18.30;54.10;;;;;;5054579;28;19971;-63
2023/09/24 06:15:19;;;;;;;;;;;18.20;54.90;;;;;;5054253;28;20317;-63
2023/09/24 06:17:49;;;;;;;;;;;18.20;55.40;;;;;;5052767;28;19939;-63
2023/09/24 06:20:16;;;;;;;;;;;18.20;54.30;;;;;;5054028;28;19952;-64
2023/09/24 06:22:45;;;;;;;;;;;18.10;54.50;;;;;;5052913;28;20305;-63
2023/09/24 06:25:12;;;;;;;;;;;18.10;55.20;;;;;;5053410;28;20385;-63
2023/09/24 06:27:40;;;;;;;;;;;18.10;54.30;;;;;;5053131;28;19931;-63
2023/09/24 06:30:08;;;;;;;;;;;18.10;54.60;;;;;;5052740;28;19925;-63
2023/09/24 06:32:35;;;;;;;;;;;18.00;55.10;;;;;;5053220;28;19978;-63
2023/09/24 06:35:03;;;;;;;;;;;18.00;56.60;;;;;;5054841;28;19924;-63
2023/09/24 06:37:30;;;;;;;;;;;18.00;54.80;;;;;;5053186;28;20385;-63
2023/09/24 06:39:57;;;;;;;;;;;17.90;54.90;;;;;;5054390;28;19978;-63
2023/09/24 06:42:24;;;;;;;;;;;17.90;55.00;;;;;;5053646;28;19936;-63
2023/09/24 06:44:52;;;;;;;;;;;17.80;54.00;;;;;;5054004;28;19924;-63
2023/09/24 06:47:19;;;;;;;;;;;17.80;55.10;;;;;;5053879;28;19948;-63
2023/09/24 06:49:52;;;;;;;;;;;17.80;55.30;;;;;;5053170;28;19932;-63
2023/09/24 06:52:19;;;;;;;;;;;17.80;65.20;;;;;;5053652;28;19929;-64
2023/09/24 06:54:46;;;;;;;;;;;18.00;69.10;;;;;;5053626;28;19929;-63
2023/09/24 06:57:13;;;;;;;;;;;18.50;68.10;;;;;;5053584;28;20455;-63
2023/09/24 06:59:40;;;;;;;;;;;19.00;67.00;;;;;;5053802;28;19925;-63
2023/09/24 07:02:07;;;;;;;;;;;19.50;65.70;;;;;;5053105;28;19925;-63
2023/09/24 07:04:34;;;;;;;;;;;19.90;64.50;;;;;;5068490;28;19929;-63
2023/09/24 07:07:02;;;;;;;;;;;20.20;63.40;;;;;;5068864;28;20400;-63
2023/09/24 07:09:29;;;;;;;;;;;20.50;62.50;;;;;;5053611;28;19925;-63
2023/09/24 07:11:56;;;;;;;;;;;20.80;61.70;;;;;;5053266;28;19932;-63
2023/09/24 07:14:23;;;;;;;;;;;21.00;61.00;;;;;;5053555;28;19925;-64
2023/09/24 07:16:50;;;;;;;;;;;21.20;60.40;;;;;;5053484;28;19947;-63
2023/09/24 07:19:18;;;;;;;;;;;21.40;59.90;;;;;;5053308;28;19925;-63
2023/09/24 07:21:46;;;;;;;;;;;21.60;59.50;;;;;;5052149;28;19951;-63
2023/09/24 07:24:13;;;;;;;;;;;21.70;59.00;;;;;;5053584;28;19929;-63
2023/09/24 07:26:44;;;;;;;;;;;21.80;58.70;;;;;;5053152;28;19936;-63
2023/09/24 07:29:11;;;;;;;;;;;21.90;58.40;;;;;;5053191;28;19925;-63
2023/09/24 07:31:38;;;;;;;;;;;22.00;58.20;;;;;;5052266;28;19975;-64
2023/09/24 07:34:06;;;;;;;;;;;22.00;57.80;;;;;;5052991;28;20388;-63
2023/09/24 07:36:33;;;;;;;;;;;22.10;57.60;;;;;;5052988;28;19964;-64
2023/09/24 07:39:11;;;;;;;;;;;22.20;57.50;;;;;;5052802;28;19970;-63
2023/09/24 07:41:38;;;;;;;;;;;22.30;57.30;;;;;;5052907;28;20012;-63
2023/09/24 07:44:05;;;;;;;;;;;22.40;57.10;;;;;;5059367;28;20381;-63
2023/09/24 07:46:32;;;;;;;;;;;22.40;56.90;;;;;;5059550;28;19977;-64
2023/09/24 07:49:03;;;;;;;;;;;22.50;56.70;;;;;;5059964;28;20300;-63
2023/09/24 07:51:30;;;;;;;;;;;22.60;56.60;;;;;;5059237;28;19979;-64
2023/09/24 07:53:57;;;;;;;;;;;22.60;56.40;;;;;;5059875;28;19924;-63
2023/09/24 07:56:24;;;;;;;;;;;22.70;56.30;;;;;;5059293;28;19925;-63
2023/09/24 07:58:52;;;;;;;;;;;22.70;56.00;;;;;;5059613;28;20361;-64
2023/09/24 08:01:22;;;;;;;;;;;22.80;56.00;;;;;;5059354;28;19994;-63
2023/09/24 08:03:49;;;;;;;;;;;22.80;55.80;;;;;;5059488;28;19960;-63
2023/09/24 08:06:18;;;;;;;;;;;22.80;55.60;;;;;;5059383;28;19925;-63
2023/09/24 08:08:45;;;;;;;;;;;22.90;55.50;;;;;;5059382;28;19936;-64
2023/09/24 08:11:22;;;;;;;;;;;22.90;55.30;;;;;;5072972;28;19940;-63
2023/09/24 08:13:49;;;;;;;;;;;23.00;55.20;;;;;;5059562;28;19978;-64
2023/09/24 08:16:19;;;;;;;;;;;23.00;55.10;;;;;;5059343;28;19928;-63
2023/09/24 08:18:48;;;;;;;;;;;23.00;55.10;;;;;;5059656;28;20331;-63
2023/09/24 08:21:16;;;;;;;;;;;23.10;55.00;;;;;;5058627;28;19928;-63
2023/09/24 08:23:43;;;;;;;;;;;23.10;63.00;;;;;;5059442;28;19988;-64
2023/09/24 08:26:10;;;;;;;;;;;23.00;53.10;;;;;;5058771;28;19982;-63
2023/09/24 08:28:37;;;;;;;;;;;22.70;45.80;;;;;;5058268;28;19925;-64
2023/09/24 08:31:08;;;;;;;;;;;22.30;45.70;;;;;;5058939;28;20377;-63
2023/09/24 08:33:35;;;;;;;;;;;21.90;46.30;;;;;;5059768;28;19925;-64
2023/09/24 08:36:06;;;;;;;;;;;21.50;46.10;;;;;;5058474;28;19979;-63
2023/09/24 08:38:33;;;;;;;;;;;21.10;48.00;;;;;;5058823;28;19931;-64
2023/09/24 08:41:01;;;;;;;;;;;20.70;48.10;;;;;;5058552;28;19925;-63
2023/09/24 08:43:30;;;;;;;;;;;20.40;48.60;;;;;;5058924;28;19925;-63
2023/09/24 08:45:57;;;;;;;;;;;20.20;49.30;;;;;;5059247;28;20364;-63
2023/09/24 08:48:24;;;;;;;;;;;19.90;50.00;;;;;;5059590;28;20335;-63
2023/09/24 08:50:51;;;;;;;;;;;19.70;50.30;;;;;;5059060;28;19924;-63
2023/09/24 08:53:19;;;;;;;;;;;19.40;50.40;;;;;;5058874;28;19925;-63
2023/09/24 08:55:46;;;;;;;;;;;19.30;51.20;;;;;;5055840;28;19937;-63
2023/09/24 08:58:13;;;;;;;;;;;19.10;51.30;;;;;;5056066;28;20400;-63
2023/09/24 09:00:42;;;;;;;;;;;19.00;52.00;;;;;;5055868;28;19955;-64
2023/09/24 09:03:09;;;;;;;;;;;18.80;51.80;;;;;;5055835;28;19925;-63
2023/09/24 09:05:37;;;;;;;;;;;18.80;61.90;;;;;;5056048;28;19928;-66
2023/09/24 09:08:04;;;;;;;;;;;19.10;63.60;;;;;;5054602;28;19925;-63
2023/09/24 09:10:33;;;;;;;;;;;19.50;62.90;;;;;;5055768;28;19971;-63
2023/09/24 09:13:04;;;;;;;;;;;20.00;61.90;;;;;;5055546;28;19924;-63
2023/09/24 09:15:32;;;;;;;;;;;20.30;60.80;;;;;;5055737;28;19925;-63
2023/09/24 09:18:00;;;;;;;;;;;20.70;59.90;;;;;;5055152;28;19925;-63
2023/09/24 09:20:41;;;;;;;;;;;21.00;59.20;;;;;;5055081;28;19980;-63
2023/09/24 09:23:13;;;;;;;;;;;21.30;58.60;;;;;;5055453;28;20403;-63
2023/09/24 09:25:50;;;;;;;;;;;21.50;57.90;;;;;;5055411;28;20228;-64
2023/09/24 09:28:25;;;;;;;;;;;21.70;57.40;;;;;;5055226;28;19928;-63
2023/09/24 09:30:57;;;;;;;;;;;21.90;56.90;;;;;;5055208;28;19925;-63
2023/09/24 09:33:26;;;;;;;;;;;22.10;56.60;;;;;;5055430;28;19958;-63
2023/09/24 09:35:53;;;;;;;;;;;22.20;56.20;;;;;;5055670;28;20274;-63
2023/09/24 09:38:21;;;;;;;;;;;22.30;56.00;;;;;;5055136;28;20391;-63
2023/09/24 09:40:53;;;;;;;;;;;22.30;55.70;;;;;;5054526;28;19929;-64
2023/09/24 09:43:29;;;;;;;;;;;22.50;55.60;;;;;;5055135;28;19929;-64
2023/09/24 09:45:57;;;;;;;;;;;22.50;55.30;;;;;;5055474;28;19925;-64
2023/09/24 09:48:27;;;;;;;;;;;22.60;55.20;;;;;;5054879;28;19939;-63
2023/09/24 09:50:58;;;;;;;;;;;22.70;55.00;;;;;;5054372;28;19929;-63
2023/09/24 09:53:29;;;;;;;;;;;22.70;54.90;;;;;;5055065;28;20370;-63
2023/09/24 09:55:56;;;;;;;;;;;22.80;54.70;;;;;;5055396;28;19971;-63
2023/09/24 09:58:23;;;;;;;;;;;22.80;54.50;;;;;;5054773;28;19932;-63
2023/09/24 10:00:54;;;;;;;;;;;22.90;54.40;;;;;;5054883;28;19924;-63
2023/09/24 10:03:21;;;;;;;;;;;23.00;54.30;;;;;;5054948;28;20408;-63
2023/09/24 10:05:49;;;;;;;;;;;23.00;54.20;;;;;;5053091;28;19969;-64
2023/09/24 10:08:36;;;;;;;;;;;23.10;54.10;;;;;;5054182;28;20301;-63
2023/09/24 10:11:04;;;;;;;;;;;23.10;53.90;;;;;;5054331;28;19970;-64
2023/09/24 10:13:47;;;;;;;;;;;23.20;54.40;;;;;;5054731;28;20388;-63
2023/09/24 10:16:35;;;;;;;;;;;23.20;53.70;;;;;;5054811;28;19925;-63
2023/09/24 10:19:04;;;;;;;;;;;23.30;53.70;;;;;;5054762;28;19925;-64
2023/09/24 10:21:36;;;;;;;;;;;23.30;53.50;;;;;;5053982;28;19932;-63
2023/09/24 10:24:28;;;;;;;;;;;23.30;53.50;;;;;;5054332;28;19979;-63
2023/09/24 10:27:07;;;;;;;;;;;23.30;53.40;;;;;;5066278;28;20336;-64
2023/09/24 10:29:57;;;;;;;;;;;23.40;53.30;;;;;;5054523;28;19996;-63
2023/09/24 10:32:25;;;;;;;;;;;23.40;53.20;;;;;;5052562;28;19978;-64
2023/09/24 10:35:12;;;;;;;;;;;23.50;53.20;;;;;;5054554;28;20344;-64
2023/09/24 10:37:55;;;;;;;;;;;23.50;53.10;;;;;;5066889;28;19925;-63
2023/09/24 10:40:26;;;;;;;;;;;23.60;62.10;;;;;;5069067;28;19963;-64
2023/09/24 10:43:10;;;;;;;;;;;23.40;46.10;;;;;;5054377;28;19948;-63
2023/09/24 10:45:37;;;;;;;;;;;23.00;45.00;;;;;;5054318;28;20324;-63
2023/09/24 10:48:04;;;;;;;;;;;22.60;45.70;;;;;;5053810;28;20023;-63
2023/09/24 10:50:31;;;;;;;;;;;22.20;45.80;;;;;;5053604;28;19925;-63
2023/09/24 10:53:02;;;;;;;;;;;21.70;46.60;;;;;;5053962;28;19968;-64
2023/09/24 10:55:40;;;;;;;;;;;21.30;47.20;;;;;;5054347;28;19929;-63
2023/09/24 10:58:14;;;;;;;;;;;21.00;48.10;;;;;;5053360;28;19924;-63
2023/09/24 11:00:45;;;;;;;;;;;20.60;48.20;;;;;;5053518;28;20414;-63
2023/09/24 11:03:13;;;;;;;;;;;20.30;49.30;;;;;;5054040;28;20322;-64
2023/09/24 11:05:43;;;;;;;;;;;20.00;49.50;;;;;;5054032;28;19925;-64
2023/09/24 11:08:12;;;;;;;;;;;19.80;49.40;;;;;;5053450;28;19960;-63
2023/09/24 11:10:39;;;;;;;;;;;19.60;50.50;;;;;;5069157;28;19974;-63
2023/09/24 11:13:06;;;;;;;;;;;19.40;50.30;;;;;;5053911;28;19986;-63
2023/09/24 11:15:34;;;;;;;;;;;19.20;50.50;;;;;;5053532;28;19928;-63
2023/09/24 11:18:02;;;;;;;;;;;19.10;52.50;;;;;;5052640;28;19924;-63
2023/09/24 11:20:31;;;;;;;;;;;18.90;53.10;;;;;;5053168;28;19959;-63
2023/09/24 11:23:02;;;;;;;;;;;18.80;54.00;;;;;;5053777;28;19932;-63
2023/09/24 11:25:30;;;;;;;;;;;18.70;53.30;;;;;;5053711;28;19932;-63
2023/09/24 11:27:59;;;;;;;;;;;18.60;53.90;;;;;;5053528;28;19924;-63
2023/09/24 11:30:40;;;;;;;;;;;18.50;54.70;;;;;;5053197;28;19925;-63
2023/09/24 11:33:12;;;;;;;;;;;18.40;53.80;;;;;;5053632;28;19925;-63
2023/09/24 11:35:40;;;;;;;;;;;18.30;55.30;;;;;;5053412;28;20034;-63
2023/09/24 11:38:07;;;;;;;;;;;18.30;53.50;;;;;;5053104;28;19924;-64
2023/09/24 11:40:36;;;;;;;;;;;18.20;53.00;;;;;;5053394;28;19931;-63
2023/09/24 11:43:04;;;;;;;;;;;18.10;53.50;;;;;;5053639;28;19924;-64
2023/09/24 11:45:53;;;;;;;;;;;18.10;52.80;;;;;;5052976;28;19925;-64
2023/09/24 11:48:21;;;;;;;;;;;18.10;53.50;;;;;;5052904;28;19929;-64
2023/09/24 11:50:49;;;;;;;;;;;18.10;55.00;;;;;;5052465;28;20387;-64
2023/09/24 11:53:18;;;;;;;;;;;18.00;54.70;;;;;;5053404;28;19928;-64
2023/09/24 11:55:48;;;;;;;;;;;18.00;54.80;;;;;;5053373;28;19925;-65
2023/09/24 11:58:17;;;;;;;;;;;17.90;54.00;;;;;;5052931;28;20431;-65
2023/09/24 12:00:44;;;;;;;;;;;17.90;54.60;;;;;;5053036;28;19929;-65
2023/09/24 12:03:12;;;;;;;;;;;17.90;53.90;;;;;;5052798;28;19935;-64
2023/09/24 12:05:40;;;;;;;;;;;18.00;53.60;;;;;;5052785;28;20027;-64
2023/09/24 12:08:08;;;;;;;;;;;18.00;54.00;;;;;;5053047;28;19924;-64
2023/09/24 12:10:38;;;;;;;;;;;18.00;54.20;;;;;;5051664;28;19978;-65
2023/09/24 12:13:05;;;;;;;;;;;17.90;53.40;;;;;;5053001;28;20398;-64
2023/09/24 12:15:32;;;;;;;;;;;17.90;54.90;;;;;;5052916;28;19929;-65
2023/09/24 12:18:01;;;;;;;;;;;17.90;54.40;;;;;;5052784;28;19929;-64
2023/09/24 12:20:28;;;;;;;;;;;17.90;54.80;;;;;;5052247;28;19928;-65
2023/09/24 12:22:57;;;;;;;;;;;17.80;56.00;;;;;;5052851;28;19979;-65
2023/09/24 12:25:24;;;;;;;;;;;17.80;55.60;;;;;;5052789;28;19978;-65
2023/09/24 12:27:51;;;;;;;;;;;17.70;55.40;;;;;;5052597;28;19925;-65
2023/09/24 12:30:18;;;;;;;;;;;17.70;55.40;;;;;;5056413;28;19929;-65
2023/09/24 12:32:45;;;;;;;;;;;17.70;54.60;;;;;;5056430;28;19931;-65
2023/09/24 12:35:12;;;;;;;;;;;17.70;55.80;;;;;;5056474;28;19925;-65
2023/09/24 12:37:40;;;;;;;;;;;17.60;54.90;;;;;;5056039;28;19932;-64
2023/09/24 12:40:08;;;;;;;;;;;17.60;55.30;;;;;;5056795;28;20011;-65
2023/09/24 12:42:36;;;;;;;;;;;17.50;55.30;;;;;;5056366;28;19925;-65
2023/09/24 12:45:04;;;;;;;;;;;17.60;55.60;;;;;;5056440;28;20442;-64
2023/09/24 12:47:32;;;;;;;;;;;17.50;56.10;;;;;;5055145;28;19934;-64
2023/09/24 12:50:01;;;;;;;;;;;17.50;55.20;;;;;;5071386;28;20020;-64
2023/09/24 12:52:32;;;;;;;;;;;17.50;56.40;;;;;;5055556;28;19925;-65
2023/09/24 12:54:59;;;;;;;;;;;17.50;54.70;;;;;;5055863;28;19964;-64
2023/09/24 12:57:26;;;;;;;;;;;17.50;54.60;;;;;;5056151;28;19924;-65
2023/09/24 12:59:53;;;;;;;;;;;17.50;56.40;;;;;;5056091;28;19924;-65
2023/09/24 13:02:20;;;;;;;;;;;17.50;55.70;;;;;;5055825;28;19956;-65
2023/09/24 13:04:48;;;;;;;;;;;17.50;55.40;;;;;;5056064;28;20020;-64
2023/09/24 13:07:15;;;;;;;;;;;17.50;55.30;;;;;;5055951;28;19925;-64
2023/09/24 13:09:42;;;;;;;;;;;17.50;55.10;;;;;;5055242;28;20020;-64
2023/09/24 13:12:11;;;;;;;;;;;17.40;54.70;;;;;;5055857;28;19928;-64
2023/09/24 13:14:38;;;;;;;;;;;17.40;55.30;;;;;;5055677;28;19931;-64
2023/09/24 13:17:05;;;;;;;;;;;17.40;55.30;;;;;;5055689;28;19924;-64
2023/09/24 13:19:32;;;;;;;;;;;17.40;55.20;;;;;;5055991;28;19925;-65
2023/09/24 13:21:59;;;;;;;;;;;17.40;56.20;;;;;;5055122;28;20377;-64
2023/09/24 13:24:26;;;;;;;;;;;17.30;56.30;;;;;;5055770;28;19929;-64
2023/09/24 13:26:53;;;;;;;;;;;17.30;55.20;;;;;;5055464;28;20281;-64
2023/09/24 13:29:23;;;;;;;;;;;17.30;55.20;;;;;;5055336;28;19936;-64
2023/09/24 13:31:50;;;;;;;;;;;17.30;55.00;;;;;;5054911;28;19925;-64
2023/09/24 13:34:17;;;;;;;;;;;17.30;54.40;;;;;;5055764;28;20341;-64
2023/09/24 13:36:44;;;;;;;;;;;17.30;54.60;;;;;;5055250;28;20373;-64
2023/09/24 13:39:11;;;;;;;;;;;17.30;55.10;;;;;;5055453;28;19971;-64
2023/09/24 13:41:38;;;;;;;;;;;17.30;56.40;;;;;;5053982;28;20369;-64
2023/09/24 13:44:06;;;;;;;;;;;17.30;55.40;;;;;;5055094;28;19925;-64
2023/09/24 13:46:33;;;;;;;;;;;17.30;55.30;;;;;;5055479;28;19986;-65
2023/09/24 13:49:04;;;;;;;;;;;17.30;56.30;;;;;;5054928;28;19928;-64
2023/09/24 13:51:35;;;;;;;;;;;17.30;56.60;;;;;;5054911;28;20312;-65
2023/09/24 13:54:02;;;;;;;;;;;17.30;54.90;;;;;;5070699;28;19931;-64
2023/09/24 13:56:30;;;;;;;;;;;17.20;55.30;;;;;;5054894;28;19929;-65
2023/09/24 13:58:57;;;;;;;;;;;17.30;56.30;;;;;;5054979;28;19978;-64
2023/09/24 14:01:24;;;;;;;;;;;17.30;54.90;;;;;;5053562;28;19951;-64
2023/09/24 14:03:54;;;;;;;;;;;17.20;54.80;;;;;;5055177;28;20327;-64
2023/09/24 14:06:21;;;;;;;;;;;17.30;63.40;;;;;;5055215;28;20336;-64
2023/09/24 14:14:22;;;;;;;;;;;18.20;80.10;;;;;;5054738;28;19925;-64
2023/09/24 14:16:49;;;;;;;;;;;18.50;80.30;;;;;;5054603;28;20335;-64
2023/09/24 14:19:16;;;;;;;;;;;18.80;80.20;;;;;;5054343;28;19992;-64
2023/09/24 14:21:44;;;;;;;;;;;19.10;79.80;;;;;;5054879;28;20266;-65
2023/09/24 14:24:11;;;;;;;;;;;19.30;79.50;;;;;;5054965;28;19965;-65
2023/09/24 14:26:38;;;;;;;;;;;19.60;79.70;;;;;;5054302;28;20426;-64
2023/09/24 14:29:09;;;;;;;;;;;19.80;79.00;;;;;;5054589;28;20032;-64
2023/09/24 14:31:36;;;;;;;;;;;19.90;78.60;;;;;;5053616;28;19928;-65